Thursday, August 16, 2018, 10:00 AM EDT
Back to Local

KEWR, Newark International Airport

Location: Elizabeth, NJ, United States Lat: 40.683
Local Time: 10:00 AM EDT (14:00 GMT) Lon: -74.167
Time Zone: US/Eastern Elev: 16 ft

Show me the last for .
Show Decoded

2018-08-16 08:51 METAR KEWR 161251Z 25004KT 10SM FEW200 BKN250 26/20 A3006 RMK AO2 SLP178
                 T02610200 =
2018-08-16 07:51 METAR KEWR 161151Z 26005KT 10SM FEW180 BKN250 26/19 A3005 RMK AO2 SLP174
                 T02560194 10256 20228 51016 =
2018-08-16 06:51 METAR KEWR 161051Z 22004KT 10SM FEW180 BKN250 23/21 A3004 RMK AO2 SLP171
                 T02330206 =
2018-08-16 05:51 METAR KEWR 160951Z 00000KT 10SM FEW200 BKN250 24/21 A3002 RMK AO2 SLP164
                 T02390206 =
2018-08-16 04:51 METAR KEWR 160851Z 25004KT 10SM BKN250 25/21 A3000 RMK AO2 SLP158 T02500206
                 53007 =
2018-08-16 03:51 METAR KEWR 160751Z 25004KT 10SM BKN250 25/21 A2999 RMK AO2 SLP154 T02500211 =
2018-08-16 02:51 METAR KEWR 160651Z 22005KT 10SM BKN250 24/21 A2999 RMK AO2 SLP154 T02390206 =
2018-08-16 01:51 METAR KEWR 160551Z 22005KT 10SM BKN250 24/21 A2998 RMK AO2 SLP151 T02440206
                 10294 20244 51004 =
2018-08-16 00:51 METAR KEWR 160451Z 25008KT 10SM SCT250 27/21 A2998 RMK AO2 SLP151 T02670206
                 403220206 =
2018-08-15 23:51 METAR KEWR 160351Z 26008KT 10SM SCT250 27/21 A2997 RMK AO2 SLP149 T02720206 =
2018-08-15 22:51 METAR KEWR 160251Z 26008KT 10SM FEW200 BKN250 28/21 A2997 RMK AO2 SLP147
                 T02780206 51012 =
2018-08-15 21:51 METAR KEWR 160151Z 25009KT 10SM FEW060 FEW100 BKN250 28/21 A2997 RMK AO2 SLP147
                 T02830206 =
2018-08-15 20:51 METAR KEWR 160051Z 24012KT 10SM FEW065 SCT090 BKN250 29/20 A2994 RMK AO2 SLP140
                 T02890200 =
2018-08-15 19:51 METAR KEWR 152351Z 24009KT 10SM SCT065 SCT090 BKN250 29/20 A2993 RMK AO2 SLP135
                 T02940200 10322 20294 53010 =
2018-08-15 18:51 METAR KEWR 152251Z 25010KT 10SM SCT055 BKN250 31/19 A2991 RMK AO2 SLP129
                 T03060194 =
2018-08-15 17:51 METAR KEWR 152151Z 24011G17KT 10SM SCT055 BKN250 31/19 A2991 RMK AO2 SLP126
                 T03110189 =
2018-08-15 16:51 METAR KEWR 152051Z VRB05KT 10SM SCT055 BKN250 32/18 A2990 RMK AO2 SLP126
                 T03170183 56004 =
2018-08-15 15:51 METAR KEWR 151951Z 27012KT 10SM SCT055 BKN250 32/18 A2990 RMK AO2 SLP126
                 T03220183 =
2018-08-15 14:51 METAR KEWR 151851Z 29010KT 10SM SCT055 BKN250 32/18 A2991 RMK AO2 SLP128
                 T03170183 =
2018-08-15 13:51 METAR KEWR 151751Z COR 26010G18KT 10SM FEW002 SCT042 SCT250 31/19 A2992 RMK AO2
                 FU FEW002 SLP130 T03110189 10311 20228 55000 =
2018-08-15 12:51 METAR KEWR 151651Z 30013G19KT 10SM SCT042 SCT250 31/19 A2992 RMK AO2 SLP131
                 T03060194 =
2018-08-15 11:51 METAR KEWR 151551Z 29011KT 10SM FEW040 SCT250 29/19 A2991 RMK AO2 SLP129
                 T02940194 =
2018-08-15 10:51 METAR KEWR 151451Z 29010KT 10SM FEW035 FEW250 28/19 A2992 RMK AO2 SLP130
                 T02780194 51010 =

Support USWX by starting your Amazon purchase here.